Time;durP1;ratioP1;P1;durP2;ratioP2;P2;SDS_P1;SDS_P2;PMS_P1;PMS_P2;Temp;Humidity;BMP_temperature;BMP_pressure;BME280_temperature;BME280_humidity;BME280_pressure;Samples;Min_cycle;Max_cycle;Signal;HPM_P1;HPM_P2
2021/06/29 00:00:48;;;;;;;;;1.00;1.00;;;;;18.98;66.72;101274.50;4961346;28;45404;-81
2021/06/29 00:03:16;;;;;;;;;2.00;2.00;;;;;19.07;67.42;101281.06;4959944;28;46605;-83
2021/06/29 00:05:41;;;;;;;;;1.00;1.00;;;;;19.11;67.03;101281.75;4976352;28;47067;-83
2021/06/29 00:08:07;;;;;;;;;2.50;1.75;;;;;19.09;66.35;101271.19;4967225;28;45215;-84
2021/06/29 00:10:36;;;;;;;;;2.50;1.25;;;;;19.14;66.47;101280.72;4961410;28;45223;-84
2021/06/29 00:13:04;;;;;;;;;3.00;2.00;;;;;19.06;66.08;101274.00;4964343;28;45483;-84
2021/06/29 00:15:30;;;;;;;;;1.75;1.25;;;;;19.08;66.59;101272.13;4960765;28;45381;-84
2021/06/29 00:17:56;;;;;;;;;4.50;4.00;;;;;19.15;66.78;101282.41;4976175;28;45341;-84
2021/06/29 00:20:22;;;;;;;;;3.00;2.00;;;;;19.20;66.53;101277.69;4962454;28;45162;-93
2021/06/29 00:22:47;;;;;;;;;1.50;1.50;;;;;19.16;67.06;101262.81;4976583;28;46991;-92
2021/06/29 00:25:14;;;;;;;;;1.75;1.75;;;;;19.24;66.35;101268.56;4968269;28;45384;-91
2021/06/29 00:27:40;;;;;;;;;2.25;2.00;;;;;19.25;65.88;101261.41;4978063;28;45693;-90
2021/06/29 00:30:07;;;;;;;;;1.00;1.00;;;;;19.32;66.35;101268.94;4961023;28;45460;-93
2021/06/29 00:32:33;;;;;;;;;3.75;3.75;;;;;19.27;66.16;101259.50;4972874;28;46517;-88
2021/06/29 00:34:58;;;;;;;;;2.00;2.00;;;;;19.29;65.83;101258.47;4960648;28;45563;-88
2021/06/29 00:37:24;;;;;;;;;2.00;2.00;;;;;19.25;65.75;101254.28;4972519;28;45792;-88
2021/06/29 00:39:50;;;;;;;;;2.00;2.00;;;;;19.27;65.26;101265.69;4973605;28;45314;-88
2021/06/29 00:42:15;;;;;;;;;0.75;0.75;;;;;19.18;65.20;101255.63;4968723;28;45627;-95
2021/06/29 00:44:40;;;;;;;;;3.75;2.50;;;;;19.12;65.25;101257.69;4959347;28;47048;-89
2021/06/29 00:47:09;;;;;;;;;1.00;1.00;;;;;19.00;65.83;101259.28;4960787;28;45427;-88
2021/06/29 00:49:35;;;;;;;;;1.00;1.00;;;;;18.94;65.86;101261.47;4961128;28;45207;-88
2021/06/29 00:52:01;;;;;;;;;1.25;1.25;;;;;18.81;65.85;101259.53;4966086;28;46348;-91
2021/06/29 00:54:26;;;;;;;;;2.25;2.25;;;;;18.69;65.87;101258.47;4979097;28;46043;-91
2021/06/29 00:56:52;;;;;;;;;2.50;2.50;;;;;18.58;66.15;101245.78;4976328;28;45415;-92
2021/06/29 00:59:17;;;;;;;;;3.00;3.00;;;;;18.55;66.40;101253.94;4983621;28;45429;-92
2021/06/29 01:01:43;;;;;;;;;4.00;3.00;;;;;18.40;66.73;101243.25;4978285;28;45467;-88
2021/06/29 01:04:08;;;;;;;;;1.75;1.50;;;;;18.35;66.95;101233.84;4960622;28;45407;-88
2021/06/29 01:06:34;;;;;;;;;7.75;5.50;;;;;18.30;67.02;101245.59;4966342;28;45456;-86
2021/06/29 01:09:00;;;;;;;;;4.75;3.00;;;;;18.25;67.03;101238.84;4972137;28;45637;-85
2021/06/29 01:11:26;;;;;;;;;2.00;1.75;;;;;18.17;67.41;101233.94;4966931;28;45520;-84
2021/06/29 01:13:51;;;;;;;;;3.75;2.00;;;;;18.10;67.76;101239.59;4980287;28;45924;-88
2021/06/29 01:16:17;;;;;;;;;5.50;4.00;;;;;18.08;67.61;101233.50;4962638;28;45139;-87
2021/06/29 01:18:44;;;;;;;;;4.00;2.00;;;;;18.06;67.39;101237.19;4962269;28;45270;-85
2021/06/29 01:21:16;;;;;;;;;4.00;4.00;;;;;17.99;68.13;101234.91;4979578;28;45337;-85
2021/06/29 01:23:44;;;;;;;;;4.00;3.00;;;;;17.90;68.34;101223.94;4973593;28;45301;-84
2021/06/29 01:26:14;;;;;;;;;4.25;4.00;;;;;17.94;68.23;101239.63;4960273;28;45448;-84
2021/06/29 01:31:16;;;;;;;;;2.25;2.00;;;;;17.86;68.72;101236.53;4963781;28;45249;-84
2021/06/29 01:33:43;;;;;;;;;4.25;4.25;;;;;17.87;68.29;101246.22;4966053;28;45420;-84
2021/06/29 01:36:09;;;;;;;;;3.75;3.75;;;;;17.83;68.81;101239.38;4960015;28;45261;-83
2021/06/29 01:38:35;;;;;;;;;2.50;2.50;;;;;17.81;69.01;101235.91;4972364;28;45413;-83
2021/06/29 01:41:00;;;;;;;;;2.25;2.25;;;;;17.85;69.27;101229.50;4964122;28;45473;-86
2021/06/29 01:43:29;;;;;;;;;3.25;3.25;;;;;17.98;69.56;101224.31;4969041;28;45472;-86
2021/06/29 01:45:56;;;;;;;;;3.00;3.00;;;;;18.04;68.91;101226.66;4961568;28;45379;-85
2021/06/29 01:48:23;;;;;;;;;6.00;4.25;;;;;18.10;68.49;101214.78;4963641;28;45274;-81
2021/06/29 01:50:53;;;;;;;;;2.75;2.75;;;;;18.16;68.63;101217.09;4963486;28;45379;-86
2021/06/29 01:53:19;;;;;;;;;4.75;4.00;;;;;18.16;68.66;101214.44;4963323;28;46674;-82
2021/06/29 01:55:45;;;;;;;;;3.00;3.00;;;;;18.14;68.49;101210.16;4963247;28;45353;-83
2021/06/29 01:58:13;;;;;;;;;4.00;4.00;;;;;18.10;68.53;101212.13;4969709;28;45395;-83
2021/06/29 02:00:38;;;;;;;;;4.00;3.00;;;;;18.09;68.26;101215.75;4966590;28;45504;-84
2021/06/29 02:03:04;;;;;;;;;3.25;3.25;;;;;17.99;68.40;101208.31;4966411;28;46456;-84
2021/06/29 02:05:29;;;;;;;;;2.50;2.50;;;;;17.95;69.05;101212.06;4997637;28;45341;-80
2021/06/29 02:07:55;;;;;;;;;4.50;3.00;;;;;17.95;68.77;101208.56;4981617;28;45544;-81
2021/06/29 02:10:20;;;;;;;;;4.75;3.75;;;;;17.93;68.54;101202.44;4982182;28;45645;-81
2021/06/29 02:12:46;;;;;;;;;3.50;3.00;;;;;17.93;68.59;101215.75;4966837;28;46249;-82
2021/06/29 02:15:12;;;;;;;;;5.00;4.00;;;;;17.92;68.83;101216.72;4962708;28;45443;-82
2021/06/29 02:17:39;;;;;;;;;3.50;3.00;;;;;17.94;68.93;101225.47;4963199;28;45492;-82
2021/06/29 02:20:07;;;;;;;;;3.75;3.75;;;;;17.92;68.96;101217.56;4962914;28;45313;-82
2021/06/29 02:22:33;;;;;;;;;2.00;2.00;;;;;17.92;69.22;101212.25;4962834;28;45503;-90
2021/06/29 02:24:59;;;;;;;;;5.00;3.25;;;;;17.90;69.69;101203.50;4961577;28;45646;-86
2021/06/29 02:27:28;;;;;;;;;5.50;3.50;;;;;17.95;69.13;101217.38;4963174;28;45328;-86
2021/06/29 02:29:54;;;;;;;;;2.75;1.00;;;;;18.00;69.43;101210.00;4979722;28;45410;-85
2021/06/29 02:32:19;;;;;;;;;3.00;3.00;;;;;18.03;69.25;101205.44;4981652;28;45599;-83
2021/06/29 02:34:45;;;;;;;;;3.00;3.00;;;;;18.11;69.60;101206.75;4962697;28;45405;-83
2021/06/29 02:37:10;;;;;;;;;4.75;4.00;;;;;18.20;68.85;101216.00;4963658;28;45575;-84
2021/06/29 02:39:35;;;;;;;;;3.00;3.00;;;;;18.24;69.63;101214.03;4965865;28;45474;-84
2021/06/29 02:42:01;;;;;;;;;3.00;3.00;;;;;18.28;68.21;101212.91;4962107;28;45642;-84
2021/06/29 02:44:29;;;;;;;;;6.00;5.75;;;;;18.26;68.43;101212.13;4962456;28;45230;-84
2021/06/29 02:46:54;;;;;;;;;12.00;10.00;;;;;18.20;68.16;101207.16;4962775;28;45377;-84
2021/06/29 02:49:20;;;;;;;;;10.00;8.25;;;;;18.13;67.66;101198.66;4962397;28;45385;-84
2021/06/29 02:51:45;;;;;;;;;5.25;3.75;;;;;18.07;68.14;101204.34;4962453;28;46545;-84
2021/06/29 02:54:11;;;;;;;;;3.25;3.25;;;;;18.04;69.09;101196.53;4962443;28;45215;-84
2021/06/29 02:56:37;;;;;;;;;4.50;4.25;;;;;18.09;68.54;101198.00;4967679;28;45372;-80
2021/06/29 02:59:04;;;;;;;;;3.00;3.00;;;;;18.15;68.73;101201.25;4974101;28;45328;-79
2021/06/29 03:01:29;;;;;;;;;3.00;2.75;;;;;18.16;68.88;101186.97;4981689;28;46650;-79
2021/06/29 03:03:55;;;;;;;;;3.50;2.50;;;;;18.20;68.15;101184.09;4970140;28;45547;-79
2021/06/29 03:06:20;;;;;;;;;1.50;1.50;;;;;18.26;68.13;101185.53;4962600;28;45539;-87
2021/06/29 03:08:45;;;;;;;;;2.25;2.00;;;;;18.25;68.02;101185.63;4962015;28;45547;-87
2021/06/29 03:11:11;;;;;;;;;3.00;2.00;;;;;18.24;67.86;101179.44;4964044;28;45552;-87
2021/06/29 03:13:36;;;;;;;;;1.75;1.75;;;;;18.21;67.13;101179.63;4962910;28;45308;-87
2021/06/29 03:16:02;;;;;;;;;2.00;2.00;;;;;18.17;67.52;101170.94;4962289;28;45536;-88
2021/06/29 03:18:27;;;;;;;;;4.00;2.00;;;;;18.19;67.30;101176.16;4961865;28;45278;-88
2021/06/29 03:20:53;;;;;;;;;3.00;3.00;;;;;18.15;68.17;101170.16;4977125;28;47105;-87
2021/06/29 03:23:18;;;;;;;;;3.50;1.00;;;;;18.14;68.15;101163.16;4961912;28;45317;-87
2021/06/29 03:25:43;;;;;;;;;4.00;3.00;;;;;18.15;68.11;101164.84;4962434;28;45642;-86
2021/06/29 03:28:09;;;;;;;;;3.00;3.00;;;;;18.16;68.17;101160.38;4973699;28;45332;-87
2021/06/29 03:30:34;;;;;;;;;2.25;2.25;;;;;18.24;67.73;101163.50;4961707;28;46705;-87
2021/06/29 03:33:00;;;;;;;;;1.50;1.00;;;;;18.24;67.59;101155.50;4968209;28;45472;-81
2021/06/29 03:35:25;;;;;;;;;3.00;2.00;;;;;18.19;68.26;101150.47;4962243;28;45388;-81
2021/06/29 03:37:50;;;;;;;;;2.25;2.25;;;;;18.21;68.40;101153.03;4967745;28;45500;-79
2021/06/29 03:40:16;;;;;;;;;3.00;2.00;;;;;18.26;67.92;101161.59;4981309;28;45555;-79
2021/06/29 03:42:42;;;;;;;;;3.00;1.50;;;;;18.26;68.57;101158.94;4966316;28;45436;-79
2021/06/29 03:45:08;;;;;;;;;1.75;1.75;;;;;18.29;68.71;101164.09;4961561;28;45298;-81
2021/06/29 03:47:34;;;;;;;;;2.50;2.50;;;;;18.37;67.77;101160.94;4961473;28;45680;-81
2021/06/29 03:50:03;;;;;;;;;2.25;2.00;;;;;18.40;67.23;101157.25;4961787;28;46182;-83
2021/06/29 03:52:28;;;;;;;;;1.00;1.00;;;;;18.48;67.24;101159.44;4961569;28;45241;-84
2021/06/29 03:54:54;;;;;;;;;2.25;1.75;;;;;18.43;67.51;101157.06;4976509;28;45245;-84
2021/06/29 03:57:19;;;;;;;;;2.00;1.00;;;;;18.44;67.64;101157.00;4982443;28;45486;-85
2021/06/29 03:59:45;;;;;;;;;1.50;1.50;;;;;18.48;66.68;101157.66;4961480;28;46116;-85
2021/06/29 04:02:10;;;;;;;;;2.75;1.00;;;;;18.51;67.31;101164.59;4962226;28;45201;-85
2021/06/29 04:04:36;;;;;;;;;1.50;1.50;;;;;18.47;67.24;101155.91;4989615;28;45836;-86
2021/06/29 04:07:03;;;;;;;;;2.00;2.00;;;;;18.52;67.02;101161.00;4971172;28;45439;-87
2021/06/29 04:09:28;;;;;;;;;3.00;2.00;;;;;18.55;67.61;101166.09;4980276;28;45375;-87
2021/06/29 04:11:53;;;;;;;;;1.75;1.75;;;;;18.57;67.02;101168.69;4973471;28;45389;-87
2021/06/29 04:14:19;;;;;;;;;2.50;2.00;;;;;18.53;66.20;101168.00;4983474;28;45575;-88
2021/06/29 04:16:44;;;;;;;;;1.25;1.25;;;;;18.46;65.94;101166.66;4974752;28;45506;-90
2021/06/29 04:19:09;;;;;;;;;4.00;2.50;;;;;18.31;66.18;101151.53;4980688;28;45441;-81
2021/06/29 04:21:35;;;;;;;;;2.75;2.00;;;;;18.26;66.07;101158.06;4965756;28;45327;-79
2021/06/29 04:24:05;;;;;;;;;3.00;3.00;;;;;18.18;66.66;101158.47;4961484;28;45332;-80
2021/06/29 04:26:31;;;;;;;;;1.25;1.25;;;;;18.09;67.02;101154.56;4961860;28;45518;-79
2021/06/29 04:28:56;;;;;;;;;2.50;2.00;;;;;18.09;66.87;101159.88;4979164;28;45453;-78
2021/06/29 04:31:21;;;;;;;;;3.25;2.00;;;;;18.09;67.78;101162.56;4980168;28;45257;-77
2021/06/29 04:33:47;;;;;;;;;3.00;3.00;;;;;18.13;67.81;101160.56;4967032;28;45435;-76
2021/06/29 04:36:13;;;;;;;;;2.25;2.25;;;;;18.16;67.24;101155.94;4960844;28;45325;-76
2021/06/29 04:38:39;;;;;;;;;2.25;2.25;;;;;18.11;67.54;101150.00;4971714;28;45470;-76
2021/06/29 04:41:05;;;;;;;;;3.00;3.00;;;;;18.09;67.48;101154.56;4978273;28;45468;-80
2021/06/29 04:43:30;;;;;;;;;3.50;2.00;;;;;18.11;68.27;101155.34;4960813;28;45433;-80
2021/06/29 04:45:55;;;;;;;;;2.50;2.50;;;;;18.17;67.43;101152.34;4960111;28;45530;-79
2021/06/29 04:48:21;;;;;;;;;3.75;3.75;;;;;18.20;68.13;101148.63;4975559;28;47024;-78
2021/06/29 04:50:46;;;;;;;;;1.00;1.00;;;;;18.22;67.79;101150.25;4961092;28;45262;-80
2021/06/29 04:53:12;;;;;;;;;4.00;2.75;;;;;18.27;67.28;101157.13;4965409;28;45667;-79
2021/06/29 04:55:37;;;;;;;;;2.00;2.00;;;;;18.21;67.51;101145.91;4979977;28;45244;-80
2021/06/29 04:58:03;;;;;;;;;3.00;3.00;;;;;18.25;67.67;101154.53;4967408;28;45183;-80
2021/06/29 05:00:28;;;;;;;;;3.00;2.00;;;;;18.24;67.45;101141.34;4980059;28;45216;-80
2021/06/29 05:02:54;;;;;;;;;2.25;2.25;;;;;18.27;68.24;101149.16;4972565;28;45334;-80
2021/06/29 05:05:20;;;;;;;;;2.75;1.00;;;;;18.38;67.92;101161.81;4960602;28;45436;-80
2021/06/29 05:07:48;;;;;;;;;3.25;2.00;;;;;18.43;67.65;101162.38;4991250;28;47872;-80
2021/06/29 05:10:14;;;;;;;;;5.00;3.00;;;;;18.43;67.24;101157.94;4980034;28;45443;-80
2021/06/29 05:12:39;;;;;;;;;5.50;3.00;;;;;18.43;67.62;101163.25;4965853;28;45396;-80
2021/06/29 05:15:07;;;;;;;;;2.25;1.75;;;;;18.45;67.50;101165.81;4975184;28;47206;-79
2021/06/29 05:17:33;;;;;;;;;2.00;2.00;;;;;18.47;67.54;101171.06;4960173;28;45437;-81
2021/06/29 05:19:58;;;;;;;;;4.50;3.00;;;;;18.55;67.56;101176.75;4975707;28;46025;-81
2021/06/29 05:22:27;;;;;;;;;3.00;3.00;;;;;18.60;66.92;101177.34;4981612;28;45265;-86
2021/06/29 05:24:52;;;;;;;;;2.75;2.75;;;;;18.60;66.63;101174.69;4983266;28;45440;-85
2021/06/29 05:27:18;;;;;;;;;3.25;3.00;;;;;18.66;66.89;101179.66;4970397;28;47121;-84
2021/06/29 05:29:43;;;;;;;;;3.00;3.00;;;;;18.75;67.15;101188.88;4978331;28;45463;-79
2021/06/29 05:32:09;;;;;;;;;3.25;3.00;;;;;18.75;67.13;101185.34;4974193;28;45375;-80
2021/06/29 05:34:34;;;;;;;;;3.00;3.00;;;;;18.76;66.84;101171.09;4982623;28;45476;-80
2021/06/29 05:37:00;;;;;;;;;3.25;3.00;;;;;18.75;66.73;101177.34;4983305;28;46329;-80
2021/06/29 05:39:25;;;;;;;;;2.25;2.25;;;;;18.78;66.67;101187.81;4979547;28;45309;-80
2021/06/29 05:41:51;;;;;;;;;3.00;3.00;;;;;18.78;66.29;101190.50;4963675;28;45590;-78
2021/06/29 05:44:16;;;;;;;;;3.00;2.00;;;;;18.82;66.87;101188.47;4963157;28;45507;-78
2021/06/29 05:46:41;;;;;;;;;4.75;3.75;;;;;18.79;65.85;101194.88;4963605;28;46089;-78
2021/06/29 05:49:11;;;;;;;;;4.00;2.75;;;;;18.77;66.75;101202.06;4981896;28;45347;-78
2021/06/29 05:51:37;;;;;;;;;4.00;2.00;;;;;18.78;66.21;101204.66;4979097;28;45332;-78
2021/06/29 05:54:03;;;;;;;;;3.00;3.00;;;;;18.77;66.74;101204.75;4980117;28;45523;-81
2021/06/29 05:56:29;;;;;;;;;5.00;4.00;;;;;18.81;66.76;101208.09;4979332;28;46684;-79
2021/06/29 05:58:54;;;;;;;;;3.50;3.50;;;;;18.83;66.44;101207.03;4970235;28;45733;-81
2021/06/29 06:01:20;;;;;;;;;3.00;3.00;;;;;18.88;66.38;101214.75;4980985;28;45316;-77
2021/06/29 06:03:45;;;;;;;;;5.00;3.25;;;;;18.88;66.54;101212.94;4967472;28;45459;-77
2021/06/29 06:06:10;;;;;;;;;3.00;3.00;;;;;18.93;66.42;101212.66;4968875;28;46291;-78
2021/06/29 06:08:36;;;;;;;;;2.75;2.75;;;;;18.96;66.40;101215.16;4981241;28;45231;-78
2021/06/29 06:11:01;;;;;;;;;3.00;3.00;;;;;18.99;65.47;101209.63;4968499;28;45215;-78
2021/06/29 06:13:27;;;;;;;;;3.00;2.00;;;;;18.95;66.04;101217.88;4971505;28;45587;-77
2021/06/29 06:15:53;;;;;;;;;2.50;1.75;;;;;18.87;66.33;101213.88;4978419;28;45381;-79
2021/06/29 06:18:19;;;;;;;;;3.00;3.00;;;;;18.93;66.52;101219.78;4964965;28;45235;-78
2021/06/29 06:20:45;;;;;;;;;4.75;3.25;;;;;18.93;66.52;101222.47;4976226;28;45565;-80
2021/06/29 06:23:10;;;;;;;;;3.00;3.00;;;;;18.96;66.42;101220.47;4967181;28;45447;-81
2021/06/29 06:25:35;;;;;;;;;3.50;3.25;;;;;18.99;66.42;101219.41;4971332;28;46162;-83
2021/06/29 06:28:03;;;;;;;;;5.00;5.00;;;;;19.03;66.54;101233.41;4977684;28;45732;-82
2021/06/29 06:30:29;;;;;;;;;4.75;4.75;;;;;18.96;66.45;101216.94;4972470;28;46044;-82
2021/06/29 06:32:54;;;;;;;;;5.50;4.00;;;;;18.86;66.39;101214.84;4963055;28;45467;-83
2021/06/29 06:35:20;;;;;;;;;5.00;3.50;;;;;18.81;66.74;101216.94;4980063;28;46193;-82
2021/06/29 06:37:46;;;;;;;;;3.50;3.50;;;;;18.75;67.34;101214.63;4975609;28;45447;-81
2021/06/29 06:40:12;;;;;;;;;4.00;4.00;;;;;18.74;67.55;101219.09;4962739;28;45365;-81
2021/06/29 06:42:38;;;;;;;;;3.00;3.00;;;;;18.73;67.65;101216.53;4973863;28;45489;-81
2021/06/29 06:45:05;;;;;;;;;6.00;6.00;;;;;18.68;67.35;101214.16;4980207;28;46234;-82
2021/06/29 06:47:31;;;;;;;;;3.50;3.50;;;;;18.62;67.95;101214.53;4972733;28;46033;-80
2021/06/29 06:49:56;;;;;;;;;6.25;5.25;;;;;18.55;67.60;101214.88;4962014;28;45536;-80
2021/06/29 06:52:21;;;;;;;;;4.50;4.00;;;;;18.54;67.95;101213.16;4973630;28;45421;-82
2021/06/29 06:54:47;;;;;;;;;5.00;3.50;;;;;18.57;68.04;101217.44;4963406;28;46587;-82
2021/06/29 06:57:12;;;;;;;;;4.75;4.75;;;;;18.62;68.15;101215.38;4962106;28;45290;-82
2021/06/29 06:59:38;;;;;;;;;4.00;4.00;;;;;18.67;68.54;101220.41;4962450;28;45746;-82
2021/06/29 07:02:05;;;;;;;;;4.50;4.50;;;;;18.64;68.66;101223.28;4967305;28;45500;-81
2021/06/29 07:04:30;;;;;;;;;4.75;4.25;;;;;18.66;68.73;101226.69;4961680;28;45365;-82
2021/06/29 07:06:56;;;;;;;;;6.50;5.00;;;;;18.66;68.78;101222.25;4962441;28;45286;-82
2021/06/29 07:09:21;;;;;;;;;5.00;4.25;;;;;18.66;69.20;101221.38;4962488;28;45452;-82
2021/06/29 07:11:50;;;;;;;;;6.00;6.00;;;;;18.67;69.02;101223.06;4961990;28;45480;-81
2021/06/29 07:14:16;;;;;;;;;6.50;4.00;;;;;18.65;68.45;101230.31;4962073;28;45482;-81
2021/06/29 07:16:42;;;;;;;;;3.00;3.00;;;;;18.62;68.33;101230.50;4976571;28;45585;-82
2021/06/29 07:19:08;;;;;;;;;6.25;4.00;;;;;18.56;68.60;101231.72;4972973;28;45305;-81
2021/06/29 07:21:33;;;;;;;;;3.50;3.50;;;;;18.53;68.84;101229.22;4977468;28;45557;-83
2021/06/29 07:23:59;;;;;;;;;3.75;3.75;;;;;18.42;68.96;101230.72;4979445;28;45635;-81
2021/06/29 07:26:25;;;;;;;;;6.00;5.00;;;;;18.38;68.16;101236.31;4980792;28;45356;-81
2021/06/29 07:28:50;;;;;;;;;4.50;4.00;;;;;18.29;69.04;101245.69;4975540;28;45845;-82
2021/06/29 07:31:19;;;;;;;;;4.00;4.00;;;;;18.24;68.69;101240.66;4990131;28;46022;-82
2021/06/29 07:33:46;;;;;;;;;4.00;3.25;;;;;18.18;69.51;101235.63;4970562;28;45303;-82
2021/06/29 07:36:15;;;;;;;;;4.00;4.00;;;;;18.17;68.02;101236.59;4979145;28;45406;-81
2021/06/29 07:38:40;;;;;;;;;3.00;3.00;;;;;18.09;69.80;101229.91;4979120;28;45471;-82
2021/06/29 07:41:05;;;;;;;;;4.00;4.00;;;;;18.06;70.19;101239.84;4961784;28;45377;-82
2021/06/29 07:43:31;;;;;;;;;9.00;3.50;;;;;18.07;69.82;101231.81;4975249;28;46217;-82
2021/06/29 07:45:56;;;;;;;;;3.00;3.00;;;;;18.21;69.53;101244.34;4961695;28;45249;-82
2021/06/29 07:48:22;;;;;;;;;4.00;3.00;;;;;18.30;69.92;101240.28;4960853;28;45347;-81
2021/06/29 07:50:47;;;;;;;;;2.25;2.25;;;;;18.46;69.52;101246.50;4961665;28;45211;-82
2021/06/29 07:53:13;;;;;;;;;1.50;1.50;;;;;18.57;69.87;101240.56;4979773;28;46275;-81
2021/06/29 07:55:38;;;;;;;;;3.00;3.00;;;;;18.59;68.31;101242.19;4980697;28;45165;-80
2021/06/29 07:58:03;;;;;;;;;3.75;3.00;;;;;18.59;67.49;101236.88;4981005;28;45163;-80
2021/06/29 08:00:29;;;;;;;;;3.25;2.25;;;;;18.58;68.04;101240.47;4974798;28;45211;-80
2021/06/29 08:02:55;;;;;;;;;5.75;3.25;;;;;18.62;68.45;101241.16;4960101;28;45285;-80
2021/06/29 08:05:20;;;;;;;;;1.00;1.00;;;;;18.65;69.48;101240.94;4964473;28;45677;-80
2021/06/29 08:07:46;;;;;;;;;1.00;1.00;;;;;18.70;68.76;101243.34;4979886;28;45579;-80
2021/06/29 08:10:11;;;;;;;;;3.00;2.50;;;;;18.81;68.60;101240.91;4975901;28;45475;-80
2021/06/29 08:12:37;;;;;;;;;4.00;2.00;;;;;18.90;68.01;101250.13;4969663;28;45476;-80
2021/06/29 08:15:05;;;;;;;;;1.25;1.25;;;;;18.97;68.11;101234.63;4973624;28;45495;-80
2021/06/29 08:17:30;;;;;;;;;3.00;3.00;;;;;19.04;67.72;101241.28;4979532;28;45447;-80
2021/06/29 08:19:56;;;;;;;;;1.00;1.00;;;;;19.11;67.98;101245.28;4978159;28;45289;-80
2021/06/29 08:22:22;;;;;;;;;1.25;1.25;;;;;19.10;67.09;101240.94;4978517;28;45301;-80
2021/06/29 08:24:48;;;;;;;;;2.25;2.25;;;;;19.16;67.07;101245.00;4980316;28;45226;-80
2021/06/29 08:27:14;;;;;;;;;1.75;1.75;;;;;19.22;66.52;101244.69;4980107;28;45238;-80
2021/06/29 08:29:42;;;;;;;;;5.00;3.00;;;;;19.27;66.91;101248.84;4972339;28;45220;-81
2021/06/29 08:32:07;;;;;;;;;1.25;1.25;;;;;19.30;67.52;101246.88;4969832;28;46413;-81
2021/06/29 08:34:33;;;;;;;;;3.00;3.00;;;;;19.30;66.68;101246.00;4980456;28;45363;-80
2021/06/29 08:36:58;;;;;;;;;3.75;2.00;;;;;19.36;67.35;101244.78;4978983;28;45469;-80
2021/06/29 08:39:24;;;;;;;;;2.00;2.00;;;;;19.38;67.27;101251.72;4973121;28;45415;-80
2021/06/29 08:41:49;;;;;;;;;2.00;2.00;;;;;19.38;65.50;101253.53;4960567;28;45325;-80
2021/06/29 08:44:15;;;;;;;;;2.75;2.75;;;;;19.33;67.50;101251.16;4960517;28;45326;-80
2021/06/29 08:46:41;;;;;;;;;3.25;2.75;;;;;19.32;66.91;101238.75;4960635;28;45361;-80
2021/06/29 08:49:07;;;;;;;;;2.25;2.25;;;;;19.33;65.51;101249.31;4969473;28;45527;-81
2021/06/29 08:51:34;;;;;;;;;2.25;2.25;;;;;19.23;64.80;101241.06;4968124;28;46197;-81
2021/06/29 08:54:02;;;;;;;;;2.00;2.00;;;;;19.14;66.45;101240.75;4975100;28;45206;-81
2021/06/29 08:56:28;;;;;;;;;1.00;1.00;;;;;19.04;64.03;101241.28;4960882;28;45317;-81
2021/06/29 08:58:54;;;;;;;;;2.75;2.75;;;;;19.01;66.40;101244.16;4972619;28;46683;-80
2021/06/29 09:01:19;;;;;;;;;1.75;1.75;;;;;18.93;66.09;101233.97;4978089;28;45415;-81
2021/06/29 09:03:44;;;;;;;;;1.25;1.25;;;;;18.99;65.81;101238.06;4966417;28;45380;-81
2021/06/29 09:06:10;;;;;;;;;1.25;1.25;;;;;19.06;66.02;101249.22;4961079;28;46659;-81
2021/06/29 09:08:40;;;;;;;;;2.50;2.00;;;;;19.09;66.59;101243.66;4960451;28;45447;-82
2021/06/29 09:11:14;;;;;;;;;2.00;2.00;;;;;19.20;66.36;101246.59;4967171;28;45552;-82
2021/06/29 09:13:42;;;;;;;;;2.00;2.00;;;;;19.22;66.52;101243.81;4979925;28;45318;-81
2021/06/29 09:16:08;;;;;;;;;2.00;2.00;;;;;19.30;66.39;101240.69;4962935;28;45310;-81
2021/06/29 09:18:36;;;;;;;;;3.00;1.50;;;;;19.41;66.40;101242.69;4964436;28;45816;-81
2021/06/29 09:21:11;;;;;;;;;1.00;1.00;;;;;19.48;65.60;101251.13;4979531;28;46423;-80
2021/06/29 09:23:48;;;;;;;;;4.00;4.00;;;;;19.45;64.76;101246.84;4968546;28;45676;-80
2021/06/29 09:26:16;;;;;;;;;3.00;2.00;;;;;19.41;63.82;101240.84;4965908;28;45298;-80
2021/06/29 09:28:50;;;;;;;;;2.50;2.50;;;;;19.41;63.58;101248.00;4960317;28;45477;-80
2021/06/29 09:31:18;;;;;;;;;1.00;1.00;;;;;19.37;63.46;101238.47;4963647;28;45298;-80
2021/06/29 09:33:50;;;;;;;;;1.25;1.25;;;;;19.41;64.94;101240.84;4964695;28;45428;-80
2021/06/29 09:36:18;;;;;;;;;2.00;2.00;;;;;19.40;65.10;101239.16;4965226;28;45307;-80
2021/06/29 09:38:45;;;;;;;;;1.00;1.00;;;;;19.44;64.18;101235.34;4978564;28;45482;-80
2021/06/29 09:41:17;;;;;;;;;1.75;1.75;;;;;19.49;62.49;101245.69;4960042;28;45426;-80
2021/06/29 09:43:45;;;;;;;;;1.00;1.00;;;;;19.44;62.18;101226.47;4959569;28;45702;-80
2021/06/29 09:46:19;;;;;;;;;1.25;1.00;;;;;19.48;61.52;101230.69;4960294;28;45580;-80
2021/06/29 09:48:47;;;;;;;;;1.25;1.25;;;;;19.40;61.12;101224.97;4960006;28;45405;-79
2021/06/29 09:51:19;;;;;;;;;1.00;1.00;;;;;19.40;61.55;101224.97;4960251;28;45400;-79
2021/06/29 09:53:53;;;;;;;;;1.75;1.75;;;;;19.40;60.74;101227.63;4968473;28;45378;-79
2021/06/29 09:56:19;;;;;;;;;4.75;1.00;;;;;19.40;62.54;101235.63;4968674;28;45400;-79
2021/06/29 09:58:51;;;;;;;;;0.25;0.25;;;;;19.43;62.82;101224.78;4959560;28;45620;-80
2021/06/29 10:01:19;;;;;;;;;2.00;2.00;;;;;19.51;63.28;101226.94;4972723;28;45450;-82
2021/06/29 10:03:46;;;;;;;;;1.75;1.75;;;;;19.62;64.86;101223.59;4959965;28;45464;-81
2021/06/29 10:06:17;;;;;;;;;1.00;1.00;;;;;19.69;61.42;101230.25;4963998;28;45217;-80
2021/06/29 10:08:44;;;;;;;;;1.00;1.00;;;;;19.73;58.69;101234.41;4971034;28;45519;-80
2021/06/29 10:11:27;;;;;;;;;3.75;2.00;;;;;19.73;62.17;101220.25;4962630;28;45420;-80
2021/06/29 10:13:56;;;;;;;;;1.00;1.00;;;;;19.79;60.54;101228.72;4963560;28;45428;-80
2021/06/29 10:16:25;;;;;;;;;1.00;1.00;;;;;19.82;59.07;101224.97;4981884;28;45396;-80
2021/06/29 10:21:21;;;;;;;;;2.00;1.75;;;;;19.82;59.69;101224.13;4975269;28;45485;-80
2021/06/29 10:23:49;;;;;;;;;1.00;1.00;;;;;19.85;58.69;101222.09;4969671;28;45451;-80
2021/06/29 10:26:15;;;;;;;;;2.00;1.00;;;;;19.82;58.72;101219.66;4962768;28;45171;-80
2021/06/29 10:28:42;;;;;;;;;2.50;1.50;;;;;19.81;59.47;101222.41;4962436;28;45244;-80
2021/06/29 10:31:09;;;;;;;;;4.00;2.00;;;;;19.85;59.96;101218.59;4965296;28;45599;-80
2021/06/29 10:33:35;;;;;;;;;0.50;0.50;;;;;19.90;58.81;101219.16;4968879;28;45428;-80
2021/06/29 10:36:02;;;;;;;;;0.50;0.50;;;;;19.87;56.46;101214.00;4975594;28;46029;-80
2021/06/29 10:38:28;;;;;;;;;0.25;0.25;;;;;19.79;55.66;101206.50;4979484;28;45352;-80
2021/06/29 10:40:55;;;;;;;;;0.75;0.75;;;;;19.77;57.77;101209.28;4973110;28;46609;-80
2021/06/29 10:43:20;;;;;;;;;1.00;1.00;;;;;19.77;58.36;101198.63;4961866;28;45428;-80
2021/06/29 10:45:48;;;;;;;;;0.00;0.00;;;;;19.87;58.64;101209.53;4962892;28;45186;-79
2021/06/29 10:48:24;;;;;;;;;0.00;0.00;;;;;19.94;58.95;101204.66;4962473;28;45400;-79
2021/06/29 10:50:52;;;;;;;;;1.00;1.00;;;;;19.99;59.68;101212.34;4962565;28;45390;-80
2021/06/29 10:53:38;;;;;;;;;1.00;1.00;;;;;20.05;59.56;101205.75;4964885;28;45525;-80
2021/06/29 10:56:07;;;;;;;;;12.00;9.50;;;;;20.08;59.34;101192.19;4964005;28;45274;-80
2021/06/29 10:58:40;;;;;;;;;2.00;1.00;;;;;20.13;58.76;101195.44;4962036;28;45455;-80
2021/06/29 11:01:34;;;;;;;;;1.00;1.00;;;;;20.22;58.70;101200.16;4962190;28;45417;-80
2021/06/29 11:04:02;;;;;;;;;0.50;0.50;;;;;20.24;56.86;101195.59;4963826;28;45746;-80
2021/06/29 11:06:34;;;;;;;;;1.50;1.50;;;;;20.24;58.43;101198.28;4977997;28;45735;-80
2021/06/29 11:09:00;;;;;;;;;1.00;1.00;;;;;20.22;55.54;101200.16;4975300;28;45324;-80
2021/06/29 11:11:28;;;;;;;;;0.00;0.00;;;;;20.17;55.16;101202.31;4961473;28;45291;-80
2021/06/29 11:13:53;;;;;;;;;1.75;1.00;;;;;20.15;54.30;101200.69;4962047;28;45518;-80
2021/06/29 11:16:58;;;;;;;;;1.50;0.00;;;;;20.11;56.19;101208.03;4962378;28;45371;-81
2021/06/29 11:20:02;;;;;;;;;1.00;1.00;;;;;20.18;55.19;101203.13;4981255;28;45451;-80
2021/06/29 11:22:50;;;;;;;;;0.50;0.50;;;;;20.18;55.32;101203.13;4981332;28;45477;-80
2021/06/29 11:25:34;;;;;;;;;0.00;0.00;;;;;20.15;55.16;101198.03;4969852;28;45675;-80
2021/06/29 11:28:20;;;;;;;;;1.00;0.75;;;;;20.23;55.53;101206.38;4965987;28;45380;-80